Time;durP1;ratioP1;P1;durP2;ratioP2;P2;SDS_P1;SDS_P2;PMS_P1;PMS_P2;Temp;Humidity;BMP_temperature;BMP_pressure;BME280_temperature;BME280_humidity;BME280_pressure;Samples;Min_cycle;Max_cycle;Signal;HPM_P1;HPM_P2
2023/04/27 00:00:28;;;;;;;6.00;5.70;;;;;;;;;;4983975;28;20455;-83
2023/04/27 00:02:54;;;;;;;7.23;5.60;;;;;;;;;;4986622;28;20439;-84
2023/04/27 00:05:20;;;;;;;8.87;6.80;;;;;;;;;;4981860;28;20472;-84
2023/04/27 00:07:46;;;;;;;5.90;4.90;;;;;;;;;;4973511;28;20692;-84
2023/04/27 00:10:12;;;;;;;4.83;4.43;;;;;;;;;;4985897;28;20582;-85
2023/04/27 00:12:40;;;;;;;5.10;4.87;;;;;;;;;;4980799;28;20449;-85
2023/04/27 00:15:07;;;;;;;4.30;4.20;;;;;;;;;;4980593;28;20778;-85
2023/04/27 00:17:33;;;;;;;5.03;4.73;;;;;;;;;;4983691;28;20451;-84
2023/04/27 00:19:59;;;;;;;4.60;4.30;;;;;;;;;;4974174;28;20432;-83
2023/04/27 00:22:25;;;;;;;4.43;4.03;;;;;;;;;;4985495;28;20448;-84
2023/04/27 00:24:51;;;;;;;6.77;5.00;;;;;;;;;;4990644;28;20444;-84
2023/04/27 00:27:17;;;;;;;6.32;5.72;;;;;;;;;;4988456;28;20451;-83
2023/04/27 00:29:43;;;;;;;5.50;5.00;;;;;;;;;;4989902;28;20700;-83
2023/04/27 00:32:10;;;;;;;6.70;4.80;;;;;;;;;;4988691;28;20271;-83
2023/04/27 00:34:36;;;;;;;5.43;5.10;;;;;;;;;;4987659;28;20422;-83
2023/04/27 00:37:02;;;;;;;9.02;4.43;;;;;;;;;;4989423;28;20502;-83
2023/04/27 00:39:28;;;;;;;4.38;4.07;;;;;;;;;;4987818;28;20186;-83
2023/04/27 00:41:54;;;;;;;4.75;4.40;;;;;;;;;;4989055;28;20617;-84
2023/04/27 00:44:24;;;;;;;3.90;3.80;;;;;;;;;;4978182;28;20185;-84
2023/04/27 00:46:50;;;;;;;5.00;4.63;;;;;;;;;;4985943;28;20424;-84
2023/04/27 00:49:17;;;;;;;5.93;5.53;;;;;;;;;;4977423;28;20567;-84
2023/04/27 00:51:43;;;;;;;7.32;6.60;;;;;;;;;;4988751;28;20428;-84
2023/04/27 00:54:09;;;;;;;5.20;4.70;;;;;;;;;;4987099;28;20172;-84
2023/04/27 00:56:35;;;;;;;8.80;4.63;;;;;;;;;;4987624;28;20436;-84
2023/04/27 00:59:01;;;;;;;7.00;5.85;;;;;;;;;;4987677;28;20189;-84
2023/04/27 01:01:29;;;;;;;9.43;7.20;;;;;;;;;;4988041;28;20258;-83
2023/04/27 01:03:55;;;;;;;12.63;8.73;;;;;;;;;;4991144;28;20444;-84
2023/04/27 01:06:21;;;;;;;13.50;9.27;;;;;;;;;;4990813;28;20307;-84
2023/04/27 01:08:47;;;;;;;15.35;11.05;;;;;;;;;;4989252;28;20783;-84
2023/04/27 01:11:13;;;;;;;16.45;11.05;;;;;;;;;;4988917;28;20687;-84
2023/04/27 01:13:39;;;;;;;13.70;9.88;;;;;;;;;;4971579;28;20202;-84
2023/04/27 01:16:05;;;;;;;15.20;9.98;;;;;;;;;;4987028;28;20197;-83
2023/04/27 01:18:32;;;;;;;10.60;9.50;;;;;;;;;;4982352;28;20221;-84
2023/04/27 01:20:59;;;;;;;7.18;6.40;;;;;;;;;;5002657;28;20501;-83
2023/04/27 01:23:25;;;;;;;6.80;6.25;;;;;;;;;;4994545;28;20354;-84
2023/04/27 01:25:51;;;;;;;5.90;5.45;;;;;;;;;;4990925;28;20534;-84
2023/04/27 01:28:17;;;;;;;6.77;5.40;;;;;;;;;;4989185;28;20197;-84
2023/04/27 01:30:43;;;;;;;13.45;5.18;;;;;;;;;;4988562;28;20475;-84
2023/04/27 01:33:09;;;;;;;6.15;5.43;;;;;;;;;;4984105;28;20251;-84
2023/04/27 01:35:35;;;;;;;6.07;5.55;;;;;;;;;;4985750;28;20185;-84
2023/04/27 01:38:04;;;;;;;9.52;5.47;;;;;;;;;;4988061;28;20236;-84
2023/04/27 01:40:30;;;;;;;5.63;5.20;;;;;;;;;;4988020;28;20215;-84
2023/04/27 01:42:56;;;;;;;12.73;5.75;;;;;;;;;;4982274;28;20575;-84
2023/04/27 01:45:22;;;;;;;6.85;5.88;;;;;;;;;;4979332;28;20599;-84
2023/04/27 01:47:52;;;;;;;5.32;4.93;;;;;;;;;;4982453;28;20673;-84
2023/04/27 01:50:18;;;;;;;8.60;6.20;;;;;;;;;;4981218;28;20775;-83
2023/04/27 01:52:44;;;;;;;7.47;6.78;;;;;;;;;;4989172;28;20189;-84
2023/04/27 01:55:10;;;;;;;6.88;4.97;;;;;;;;;;4982790;28;20194;-81
2023/04/27 01:57:36;;;;;;;9.93;6.30;;;;;;;;;;4984525;28;20197;-83
2023/04/27 02:00:04;;;;;;;7.77;5.87;;;;;;;;;;4978804;28;20197;-83
2023/04/27 02:02:30;;;;;;;6.57;5.70;;;;;;;;;;4979782;28;20900;-83
2023/04/27 02:04:56;;;;;;;9.07;6.47;;;;;;;;;;4987546;28;20223;-83
2023/04/27 02:07:22;;;;;;;9.93;6.70;;;;;;;;;;4983716;28;20720;-83
2023/04/27 02:09:48;;;;;;;6.78;5.35;;;;;;;;;;4988665;28;20205;-84
2023/04/27 02:12:14;;;;;;;7.00;6.32;;;;;;;;;;4984598;28;20197;-84
2023/04/27 02:14:40;;;;;;;13.93;5.50;;;;;;;;;;4986498;28;20180;-84
2023/04/27 02:17:06;;;;;;;10.45;7.85;;;;;;;;;;4985851;28;20455;-83
2023/04/27 02:19:32;;;;;;;12.30;5.90;;;;;;;;;;4978536;28;20681;-84
2023/04/27 02:21:58;;;;;;;9.77;6.20;;;;;;;;;;4981955;28;20436;-84
2023/04/27 02:24:24;;;;;;;11.23;6.50;;;;;;;;;;4980797;28;20194;-84
2023/04/27 02:26:50;;;;;;;6.40;6.00;;;;;;;;;;4988654;28;20456;-84
2023/04/27 02:29:17;;;;;;;9.13;7.57;;;;;;;;;;4974627;28;20775;-84
2023/04/27 02:31:43;;;;;;;6.82;6.18;;;;;;;;;;4985994;28;20202;-85
2023/04/27 02:34:09;;;;;;;7.35;6.68;;;;;;;;;;4976795;28;20177;-84
2023/04/27 02:36:35;;;;;;;6.77;6.00;;;;;;;;;;4982292;28;20181;-84
2023/04/27 02:39:01;;;;;;;8.88;7.18;;;;;;;;;;4994681;28;20591;-84
2023/04/27 02:41:30;;;;;;;10.27;9.10;;;;;;;;;;4992245;28;20189;-83
2023/04/27 02:43:56;;;;;;;7.93;6.95;;;;;;;;;;4995408;28;20755;-84
2023/04/27 02:46:23;;;;;;;7.32;6.57;;;;;;;;;;4985747;28;20260;-85
2023/04/27 02:48:49;;;;;;;8.02;6.60;;;;;;;;;;4968933;28;20189;-84
2023/04/27 02:51:15;;;;;;;5.93;5.50;;;;;;;;;;4992831;28;20236;-84
2023/04/27 02:53:41;;;;;;;8.33;7.50;;;;;;;;;;4982423;28;20204;-84
2023/04/27 02:56:07;;;;;;;8.27;6.93;;;;;;;;;;4991971;28;20449;-84
2023/04/27 02:58:34;;;;;;;7.72;6.90;;;;;;;;;;4992848;28;20193;-84
2023/04/27 03:01:00;;;;;;;7.67;6.97;;;;;;;;;;4993405;28;20338;-84
2023/04/27 03:03:26;;;;;;;9.10;6.80;;;;;;;;;;4992683;28;20463;-83
2023/04/27 03:05:52;;;;;;;7.20;6.70;;;;;;;;;;4994752;28;20217;-84
2023/04/27 03:08:18;;;;;;;7.57;6.97;;;;;;;;;;4988970;28;20198;-84
2023/04/27 03:10:44;;;;;;;7.72;7.00;;;;;;;;;;4990262;28;20571;-85
2023/04/27 03:13:10;;;;;;;11.20;7.25;;;;;;;;;;4993035;28;20202;-83
2023/04/27 03:15:36;;;;;;;10.55;7.85;;;;;;;;;;4995589;28;20532;-83
2023/04/27 03:18:02;;;;;;;7.70;7.10;;;;;;;;;;4986288;28;20186;-84
2023/04/27 03:20:28;;;;;;;8.63;7.73;;;;;;;;;;4998140;28;20618;-83
2023/04/27 03:22:54;;;;;;;11.63;8.27;;;;;;;;;;4998590;28;20889;-84
2023/04/27 03:25:20;;;;;;;9.57;8.75;;;;;;;;;;5004723;28;20204;-83
2023/04/27 03:27:46;;;;;;;8.43;6.35;;;;;;;;;;5007057;28;20196;-84
2023/04/27 03:30:13;;;;;;;8.87;8.07;;;;;;;;;;4995219;28;20218;-83
2023/04/27 03:32:39;;;;;;;8.30;7.60;;;;;;;;;;5000307;28;20440;-84
2023/04/27 03:35:05;;;;;;;10.17;8.93;;;;;;;;;;4973959;28;20253;-85
2023/04/27 03:37:33;;;;;;;7.13;6.47;;;;;;;;;;4990175;28;20445;-84
2023/04/27 03:39:59;;;;;;;9.95;7.95;;;;;;;;;;4991667;28;20499;-84
2023/04/27 03:42:25;;;;;;;8.90;7.30;;;;;;;;;;4987736;28;20193;-83
2023/04/27 03:44:51;;;;;;;9.73;8.80;;;;;;;;;;4992221;28;20199;-85
2023/04/27 03:47:17;;;;;;;8.10;7.30;;;;;;;;;;4987997;28;20185;-83
2023/04/27 03:49:43;;;;;;;9.60;8.70;;;;;;;;;;4957677;28;20577;-84
2023/04/27 03:52:10;;;;;;;10.23;8.50;;;;;;;;;;4987448;28;20440;-84
2023/04/27 03:54:36;;;;;;;9.07;8.18;;;;;;;;;;4990669;28;20185;-84
2023/04/27 03:57:03;;;;;;;9.87;7.93;;;;;;;;;;4991432;28;20197;-84
2023/04/27 03:59:29;;;;;;;10.68;8.32;;;;;;;;;;4982858;28;20428;-83
2023/04/27 04:01:57;;;;;;;10.10;8.35;;;;;;;;;;4989495;28;20602;-83
2023/04/27 04:04:23;;;;;;;9.67;8.23;;;;;;;;;;4986547;28;20219;-83
2023/04/27 04:06:49;;;;;;;8.02;7.22;;;;;;;;;;4983361;28;20464;-84
2023/04/27 04:09:15;;;;;;;7.85;7.00;;;;;;;;;;4964416;28;20578;-84
2023/04/27 04:11:41;;;;;;;13.63;9.27;;;;;;;;;;4988669;28;20573;-83
2023/04/27 04:14:07;;;;;;;10.67;8.07;;;;;;;;;;4992791;28;20173;-83
2023/04/27 04:16:33;;;;;;;11.00;7.82;;;;;;;;;;4988095;28;20497;-84
2023/04/27 04:18:59;;;;;;;9.37;8.27;;;;;;;;;;4965811;28;20749;-84
2023/04/27 04:21:25;;;;;;;10.40;8.45;;;;;;;;;;4986090;28;20440;-83
2023/04/27 04:23:51;;;;;;;8.87;8.03;;;;;;;;;;4979869;28;20209;-82
2023/04/27 04:26:17;;;;;;;10.15;7.28;;;;;;;;;;4991154;28;20715;-82
2023/04/27 04:28:44;;;;;;;9.93;7.85;;;;;;;;;;4977601;28;20202;-83
2023/04/27 04:31:10;;;;;;;10.65;8.05;;;;;;;;;;4991559;28;20223;-83
2023/04/27 04:33:36;;;;;;;14.18;7.88;;;;;;;;;;4979335;28;20286;-83
2023/04/27 04:36:03;;;;;;;8.60;7.70;;;;;;;;;;4991612;28;20193;-84
2023/04/27 04:38:29;;;;;;;9.63;7.47;;;;;;;;;;4982267;28;20536;-85
2023/04/27 04:40:55;;;;;;;12.80;10.02;;;;;;;;;;4990172;28;20422;-82
2023/04/27 04:43:21;;;;;;;11.02;10.02;;;;;;;;;;4969129;28;20771;-84
2023/04/27 04:45:47;;;;;;;10.10;8.95;;;;;;;;;;4997315;28;20832;-81
2023/04/27 04:48:17;;;;;;;12.60;10.75;;;;;;;;;;4983701;28;20398;-83
2023/04/27 04:50:43;;;;;;;16.00;9.55;;;;;;;;;;4988490;28;20251;-84
2023/04/27 04:53:09;;;;;;;13.40;8.52;;;;;;;;;;4994688;28;20182;-79
2023/04/27 04:55:35;;;;;;;12.35;9.95;;;;;;;;;;4993377;28;20833;-84
2023/04/27 04:58:01;;;;;;;12.18;10.05;;;;;;;;;;4984558;28;20457;-83
2023/04/27 05:00:27;;;;;;;16.13;8.73;;;;;;;;;;4997283;28;20185;-83
2023/04/27 05:02:53;;;;;;;8.50;7.20;;;;;;;;;;4999338;28;20432;-84
2023/04/27 05:05:20;;;;;;;16.10;9.02;;;;;;;;;;4996885;28;20609;-82
2023/04/27 05:07:46;;;;;;;9.40;8.50;;;;;;;;;;4990151;28;20486;-83
2023/04/27 05:10:12;;;;;;;11.40;8.20;;;;;;;;;;4992200;28;20463;-79
2023/04/27 05:12:38;;;;;;;9.73;8.73;;;;;;;;;;4988356;28;20208;-80
2023/04/27 05:15:04;;;;;;;8.80;7.53;;;;;;;;;;4988826;28;20211;-79
2023/04/27 05:17:30;;;;;;;12.60;7.30;;;;;;;;;;4984971;28;20448;-80
2023/04/27 05:19:57;;;;;;;10.55;9.55;;;;;;;;;;4981641;28;20411;-80
2023/04/27 05:22:23;;;;;;;;;;;;;;;;;;4984932;28;20026;-79
2023/04/27 05:24:48;;;;;;;;;;;;;;;;;;4971208;28;20175;-80
2023/04/27 05:27:14;;;;;;;;;;;;;;;;;;4987396;28;19957;-80
2023/04/27 05:29:41;;;;;;;;;;;;;;;;;;4985906;28;19961;-79
2023/04/27 05:32:07;;;;;;;9.03;6.87;;;;;;;;;;4968647;28;20215;-81
2023/04/27 05:34:33;;;;;;;12.27;8.40;;;;;;;;;;4985013;28;21166;-81
2023/04/27 05:36:59;;;;;;;11.07;8.50;;;;;;;;;;4990271;28;20614;-80
2023/04/27 05:39:25;;;;;;;9.10;8.10;;;;;;;;;;4993040;28;20386;-78
2023/04/27 05:41:52;;;;;;;9.23;8.43;;;;;;;;;;5003190;28;20440;-80
2023/04/27 05:44:19;;;;;;;7.77;7.07;;;;;;;;;;4987395;28;20480;-78
2023/04/27 05:46:46;;;;;;;7.33;6.63;;;;;;;;;;4989608;28;20420;-80
2023/04/27 05:49:12;;;;;;;10.30;7.30;;;;;;;;;;4984578;28;20998;-79
2023/04/27 05:51:38;;;;;;;9.60;8.70;;;;;;;;;;4981647;28;20555;-80
2023/04/27 05:54:04;;;;;;;8.33;7.60;;;;;;;;;;4982087;28;20197;-79
2023/04/27 05:56:30;;;;;;;8.20;7.50;;;;;;;;;;4993388;28;20439;-81
2023/04/27 05:58:56;;;;;;;7.10;6.60;;;;;;;;;;4986999;28;20468;-81
2023/04/27 06:01:22;;;;;;;9.80;7.30;;;;;;;;;;4974357;28;20421;-81
2023/04/27 06:03:48;;;;;;;8.30;7.60;;;;;;;;;;4974638;28;20436;-81
2023/04/27 06:06:14;;;;;;;6.97;6.37;;;;;;;;;;4973804;28;20483;-81
2023/04/27 06:08:40;;;;;;;6.83;6.33;;;;;;;;;;4979306;28;20555;-82
2023/04/27 06:11:06;;;;;;;9.87;7.87;;;;;;;;;;4971139;28;20465;-77
2023/04/27 06:13:32;;;;;;;8.37;6.73;;;;;;;;;;4981868;28;20432;-81
2023/04/27 06:15:59;;;;;;;6.67;5.80;;;;;;;;;;4977634;28;20445;-79
2023/04/27 06:18:25;;;;;;;7.63;6.93;;;;;;;;;;4975070;28;20429;-81
2023/04/27 06:20:51;;;;;;;7.60;6.90;;;;;;;;;;4977174;28;20413;-80
2023/04/27 06:23:17;;;;;;;8.70;7.93;;;;;;;;;;4955113;28;20439;-81
2023/04/27 06:25:43;;;;;;;7.70;7.10;;;;;;;;;;4987491;28;20468;-86
2023/04/27 06:28:10;;;;;;;8.73;7.03;;;;;;;;;;4979354;28;20456;-85
2023/04/27 06:30:36;;;;;;;7.30;6.77;;;;;;;;;;4997352;28;20748;-85
2023/04/27 06:33:02;;;;;;;8.40;7.60;;;;;;;;;;4981084;28;20500;-85
2023/04/27 06:35:28;;;;;;;7.57;6.97;;;;;;;;;;5000697;28;20900;-85
2023/04/27 06:37:57;;;;;;;7.93;6.13;;;;;;;;;;4982777;28;20457;-86
2023/04/27 06:40:23;;;;;;;7.80;6.40;;;;;;;;;;4984052;28;20793;-86
2023/04/27 06:42:49;;;;;;;8.40;7.77;;;;;;;;;;4990265;28;20428;-85
2023/04/27 06:45:15;;;;;;;6.87;6.17;;;;;;;;;;4987267;28;20978;-86
2023/04/27 06:47:41;;;;;;;8.17;6.43;;;;;;;;;;4980965;28;20437;-86
2023/04/27 06:50:07;;;;;;;7.70;6.97;;;;;;;;;;4989519;28;20515;-86
2023/04/27 06:52:33;;;;;;;7.33;6.70;;;;;;;;;;4981504;28;20437;-86
2023/04/27 06:55:00;;;;;;;6.80;6.33;;;;;;;;;;4982461;28;20867;-85
2023/04/27 06:57:26;;;;;;;6.57;6.10;;;;;;;;;;4982878;28;20429;-86
2023/04/27 06:59:55;;;;;;;8.00;5.73;;;;;;;;;;4984095;28;20431;-86
2023/04/27 07:02:34;;;;;;;6.83;6.13;;;;;;;;;;4992329;28;20792;-86
2023/04/27 07:05:03;;;;;;;7.80;6.03;;;;;;;;;;4996379;28;20951;-85
2023/04/27 07:07:29;;;;;;;8.43;5.70;;;;;;;;;;4979502;28;20433;-85
2023/04/27 07:09:55;;;;;;;6.37;5.60;;;;;;;;;;4990467;28;20464;-85
2023/04/27 07:12:21;;;;;;;5.70;5.30;;;;;;;;;;4991593;28;20452;-85
2023/04/27 07:14:49;;;;;;;6.10;5.70;;;;;;;;;;4988210;28;20444;-84
2023/04/27 07:17:15;;;;;;;6.70;5.80;;;;;;;;;;4988809;28;20436;-86
2023/04/27 07:19:41;;;;;;;5.40;5.10;;;;;;;;;;4986117;28;20811;-86
2023/04/27 07:22:08;;;;;;;10.13;5.20;;;;;;;;;;4963494;28;20529;-86
2023/04/27 07:24:34;;;;;;;5.57;5.20;;;;;;;;;;4984447;28;20451;-87
2023/04/27 07:27:02;;;;;;;6.27;5.20;;;;;;;;;;4976690;28;20844;-86
2023/04/27 07:29:29;;;;;;;3.93;3.83;;;;;;;;;;4990251;28;20483;-86
2023/04/27 07:31:55;;;;;;;7.70;5.63;;;;;;;;;;4984309;28;20778;-83
2023/04/27 07:34:21;;;;;;;5.53;5.07;;;;;;;;;;4983795;28;20450;-82
2023/04/27 07:36:47;;;;;;;5.50;5.20;;;;;;;;;;4983153;28;20438;-80
2023/04/27 07:39:13;;;;;;;6.60;4.60;;;;;;;;;;4981083;28;20943;-81
2023/04/27 07:41:39;;;;;;;6.70;6.10;;;;;;;;;;4982273;28;20829;-81
2023/04/27 07:44:06;;;;;;;4.63;4.43;;;;;;;;;;4983512;28;20785;-80
2023/04/27 07:46:32;;;;;;;5.53;5.03;;;;;;;;;;4973848;28;20428;-80
2023/04/27 07:48:58;;;;;;;5.20;4.80;;;;;;;;;;4976222;28;20472;-81
2023/04/27 07:51:27;;;;;;;5.70;5.30;;;;;;;;;;4979662;28;20439;-78
2023/04/27 07:53:53;;;;;;;4.93;4.63;;;;;;;;;;5000309;28;20479;-80
2023/04/27 07:56:20;;;;;;;5.53;5.13;;;;;;;;;;4986178;28;20432;-80
2023/04/27 07:58:46;;;;;;;4.57;4.20;;;;;;;;;;4982642;28;20437;-80
2023/04/27 08:01:12;;;;;;;5.67;5.10;;;;;;;;;;4986115;28;20424;-81
2023/04/27 08:03:38;;;;;;;4.73;4.53;;;;;;;;;;4981744;28;20528;-80
2023/04/27 08:06:04;;;;;;;8.57;4.30;;;;;;;;;;4984737;28;20459;-81
2023/04/27 08:08:30;;;;;;;5.60;4.90;;;;;;;;;;4979887;28;20451;-82
2023/04/27 08:10:56;;;;;;;5.53;5.00;;;;;;;;;;4973343;28;20481;-79
2023/04/27 08:13:23;;;;;;;4.17;3.97;;;;;;;;;;4971134;28;20429;-80
2023/04/27 08:15:57;;;;;;;7.00;6.30;;;;;;;;;;4981699;28;20440;-81
2023/04/27 08:18:23;;;;;;;5.20;5.00;;;;;;;;;;4987871;28;20404;-81
2023/04/27 08:20:49;;;;;;;4.90;4.50;;;;;;;;;;4984862;28;20474;-79
2023/04/27 08:23:15;;;;;;;5.00;4.70;;;;;;;;;;4986449;28;20433;-80
2023/04/27 08:25:41;;;;;;;4.67;4.23;;;;;;;;;;4965373;28;20456;-79
2023/04/27 08:28:07;;;;;;;4.70;4.30;;;;;;;;;;4985181;28;20463;-82
2023/04/27 08:30:33;;;;;;;5.60;5.30;;;;;;;;;;4981975;28;20472;-80
2023/04/27 08:32:59;;;;;;;4.73;4.23;;;;;;;;;;4984454;28;20789;-80
2023/04/27 08:35:25;;;;;;;4.90;4.57;;;;;;;;;;4977255;28;20443;-79
2023/04/27 08:37:53;;;;;;;5.13;4.63;;;;;;;;;;4968493;28;20530;-79
2023/04/27 08:40:19;;;;;;;6.10;5.07;;;;;;;;;;4977673;28;20956;-78
2023/04/27 08:42:58;;;;;;;4.03;3.83;;;;;;;;;;4977081;28;20491;-81
2023/04/27 08:45:29;;;;;;;7.10;3.90;;;;;;;;;;4982690;28;20498;-77
2023/04/27 08:47:55;;;;;;;4.07;3.87;;;;;;;;;;4969914;28;20425;-79
2023/04/27 08:50:22;;;;;;;4.27;3.93;;;;;;;;;;4975541;28;20480;-80
2023/04/27 08:52:49;;;;;;;4.07;3.87;;;;;;;;;;4977628;28;20424;-78
2023/04/27 08:55:15;;;;;;;4.43;4.10;;;;;;;;;;4984677;28;20440;-80
2023/04/27 08:57:41;;;;;;;4.00;3.80;;;;;;;;;;4981245;28;20482;-80
2023/04/27 09:00:13;;;;;;;3.50;3.27;;;;;;;;;;4980659;28;20440;-80
2023/04/27 09:02:45;;;;;;;4.03;3.67;;;;;;;;;;4984012;28;20417;-81
2023/04/27 09:05:15;;;;;;;3.70;3.43;;;;;;;;;;4977359;28;20457;-80
2023/04/27 09:07:41;;;;;;;4.13;3.83;;;;;;;;;;4972327;28;20698;-79
2023/04/27 09:10:07;;;;;;;3.70;3.50;;;;;;;;;;4976521;28;20486;-78
2023/04/27 09:12:33;;;;;;;4.23;3.80;;;;;;;;;;4986141;28;20733;-78
2023/04/27 09:15:05;;;;;;;3.70;3.50;;;;;;;;;;4982807;28;20428;-80
2023/04/27 09:17:32;;;;;;;6.70;4.07;;;;;;;;;;4960345;28;20637;-79
2023/04/27 09:20:12;;;;;;;4.60;4.20;;;;;;;;;;4984319;28;20456;-79
2023/04/27 09:22:48;;;;;;;4.00;3.80;;;;;;;;;;4983767;28;20443;-79
2023/04/27 09:25:26;;;;;;;4.57;4.27;;;;;;;;;;4984829;28;20436;-80
2023/04/27 09:27:52;;;;;;;4.63;4.20;;;;;;;;;;4984998;28;20484;-81
2023/04/27 09:30:19;;;;;;;4.10;3.90;;;;;;;;;;4981765;28;20518;-81
2023/04/27 09:32:59;;;;;;;4.37;4.10;;;;;;;;;;4985820;28;20436;-81
2023/04/27 09:35:27;;;;;;;4.47;4.27;;;;;;;;;;4979697;28;20436;-82
2023/04/27 09:37:53;;;;;;;4.10;4.00;;;;;;;;;;4984194;28;20456;-79
2023/04/27 09:40:28;;;;;;;6.80;4.43;;;;;;;;;;4957143;28;20445;-80
2023/04/27 09:43:00;;;;;;;4.77;4.20;;;;;;;;;;4983133;28;20522;-80
2023/04/27 09:45:27;;;;;;;4.83;4.67;;;;;;;;;;4983929;28;20471;-80
2023/04/27 09:47:53;;;;;;;4.90;4.50;;;;;;;;;;4981124;28;20437;-81
2023/04/27 09:50:20;;;;;;;7.70;4.43;;;;;;;;;;4983166;28;20994;-82
2023/04/27 09:52:46;;;;;;;5.47;4.80;;;;;;;;;;4983653;28;20437;-81
2023/04/27 09:55:15;;;;;;;4.93;4.70;;;;;;;;;;4984654;28;20460;-80
2023/04/27 09:58:00;;;;;;;4.70;4.60;;;;;;;;;;4978513;28;20452;-82
2023/04/27 10:01:05;;;;;;;5.20;4.90;;;;;;;;;;4982631;28;20860;-82
2023/04/27 10:03:36;;;;;;;13.17;5.07;;;;;;;;;;4908743;29;20478;-82
2023/04/27 10:06:02;;;;;;;4.63;4.40;;;;;;;;;;4922160;29;20470;-82
2023/04/27 10:08:29;;;;;;;6.07;5.47;;;;;;;;;;4951967;28;20453;-82
2023/04/27 10:10:55;;;;;;;5.13;4.83;;;;;;;;;;4985250;28;20468;-82
2023/04/27 10:13:22;;;;;;;5.70;5.07;;;;;;;;;;4980888;28;20477;-84
2023/04/27 10:15:48;;;;;;;4.77;4.43;;;;;;;;;;4984569;28;20649;-82
2023/04/27 10:18:25;;;;;;;4.40;4.00;;;;;;;;;;4980433;28;20445;-82
2023/04/27 10:20:51;;;;;;;4.80;4.57;;;;;;;;;;4979557;28;20453;-83
2023/04/27 10:23:24;;;;;;;5.03;4.83;;;;;;;;;;4978191;28;20448;-82
2023/04/27 10:25:51;;;;;;;4.90;4.60;;;;;;;;;;4983220;28;20896;-80
2023/04/27 10:28:17;;;;;;;4.97;4.67;;;;;;;;;;4985976;28;20424;-82
2023/04/27 10:30:47;;;;;;;6.20;4.83;;;;;;;;;;4979759;28;20881;-81
2023/04/27 10:33:16;;;;;;;5.83;5.30;;;;;;;;;;4978847;28;20592;-81
2023/04/27 10:35:43;;;;;;;8.73;5.70;;;;;;;;;;4982548;28;20444;-79
2023/04/27 10:38:09;;;;;;;5.63;5.07;;;;;;;;;;4984713;28;20800;-80
2023/04/27 10:40:37;;;;;;;5.83;5.40;;;;;;;;;;4974462;28;20495;-79
2023/04/27 10:43:12;;;;;;;5.03;4.53;;;;;;;;;;4968436;28;20425;-80
2023/04/27 10:45:39;;;;;;;4.87;4.73;;;;;;;;;;4972296;28;20433;-81
2023/04/27 10:48:05;;;;;;;5.70;5.40;;;;;;;;;;4980024;28;20867;-81
2023/04/27 10:50:31;;;;;;;6.00;5.60;;;;;;;;;;4978171;28;20858;-78
2023/04/27 10:53:06;;;;;;;5.70;5.30;;;;;;;;;;4977653;28;20485;-80
2023/04/27 10:55:32;;;;;;;5.07;4.70;;;;;;;;;;4975878;28;20415;-80
2023/04/27 10:57:59;;;;;;;5.63;5.33;;;;;;;;;;4980354;28;21122;-80
2023/04/27 11:00:35;;;;;;;4.97;4.67;;;;;;;;;;4967262;28;20429;-79
2023/04/27 11:03:19;;;;;;;4.90;4.70;;;;;;;;;;4982852;28;20507;-80
2023/04/27 11:05:45;;;;;;;5.27;4.83;;;;;;;;;;4982857;28;20462;-81
2023/04/27 11:08:13;;;;;;;6.20;5.20;;;;;;;;;;4986491;28;20400;-82
2023/04/27 11:10:49;;;;;;;6.00;5.57;;;;;;;;;;4982550;28;20460;-80
2023/04/27 11:13:19;;;;;;;6.07;5.37;;;;;;;;;;4986842;28;20420;-80
2023/04/27 11:15:55;;;;;;;6.17;5.67;;;;;;;;;;4979752;28;20430;-80
2023/04/27 11:18:22;;;;;;;6.20;5.30;;;;;;;;;;4986793;28;20663;-81
2023/04/27 11:20:49;;;;;;;4.97;4.70;;;;;;;;;;4976972;28;20440;-81
2023/04/27 11:23:29;;;;;;;5.33;5.00;;;;;;;;;;4969802;28;20630;-80
2023/04/27 11:25:55;;;;;;;4.93;4.63;;;;;;;;;;4977752;28;20425;-79
2023/04/27 11:28:24;;;;;;;4.80;4.50;;;;;;;;;;4969382;28;20417;-80
2023/04/27 11:31:00;;;;;;;6.07;5.70;;;;;;;;;;4970867;28;21098;-80
2023/04/27 11:33:27;;;;;;;5.20;4.90;;;;;;;;;;4967340;28;20409;-81
2023/04/27 11:35:53;;;;;;;5.70;5.17;;;;;;;;;;4974199;28;20472;-79
2023/04/27 11:38:20;;;;;;;5.13;4.70;;;;;;;;;;4983845;28;20500;-82
2023/04/27 11:40:47;;;;;;;4.97;4.67;;;;;;;;;;4959700;28;20448;-81
2023/04/27 11:43:14;;;;;;;5.00;4.77;;;;;;;;;;4984219;28;20424;-82
2023/04/27 11:45:46;;;;;;;5.68;5.30;;;;;;;;;;4964090;28;20886;-78
2023/04/27 11:48:15;;;;;;;5.20;4.90;;;;;;;;;;4971917;28;20209;-83
2023/04/27 11:50:47;;;;;;;5.67;5.27;;;;;;;;;;4977405;28;20464;-83
2023/04/27 11:53:14;;;;;;;5.97;5.63;;;;;;;;;;4960389;28;20449;-80
2023/04/27 11:55:40;;;;;;;4.70;4.40;;;;;;;;;;4977629;28;20441;-80
2023/04/27 11:58:13;;;;;;;6.13;5.67;;;;;;;;;;4983269;28;20462;-80
2023/04/27 12:00:39;;;;;;;6.03;5.37;;;;;;;;;;4973594;28;20432;-81
2023/04/27 12:03:05;;;;;;;5.20;5.00;;;;;;;;;;4978283;28;20780;-80
2023/04/27 12:05:32;;;;;;;4.70;4.33;;;;;;;;;;4975202;28;21101;-80
2023/04/27 12:07:58;;;;;;;6.43;5.80;;;;;;;;;;4974947;28;20449;-80
2023/04/27 12:10:24;;;;;;;7.37;5.00;;;;;;;;;;4957440;28;20484;-81
2023/04/27 12:12:57;;;;;;;8.03;7.53;;;;;;;;;;4975380;28;20461;-82
2023/04/27 12:15:23;;;;;;;5.87;5.70;;;;;;;;;;4998680;28;20428;-81
2023/04/27 12:17:49;;;;;;;5.60;5.30;;;;;;;;;;4990918;28;20508;-80
2023/04/27 12:20:15;;;;;;;6.20;5.57;;;;;;;;;;4996602;28;20439;-82
2023/04/27 12:22:41;;;;;;;5.87;5.60;;;;;;;;;;4982433;28;20449;-81
2023/04/27 12:25:07;;;;;;;4.87;4.70;;;;;;;;;;4978183;28;20437;-80
2023/04/27 12:27:33;;;;;;;5.37;5.07;;;;;;;;;;4961366;28;20519;-81
2023/04/27 12:30:00;;;;;;;5.13;4.93;;;;;;;;;;4972103;28;20944;-80
2023/04/27 12:32:26;;;;;;;5.63;5.20;;;;;;;;;;4981774;28;20960;-81
2023/04/27 12:34:52;;;;;;;5.37;5.07;;;;;;;;;;4989445;28;20436;-81
2023/04/27 12:37:20;;;;;;;5.33;4.90;;;;;;;;;;4958233;28;20472;-81
2023/04/27 12:39:46;;;;;;;5.23;4.93;;;;;;;;;;4978420;28;20432;-80
2023/04/27 12:42:12;;;;;;;4.63;4.20;;;;;;;;;;4985848;28;20471;-80
2023/04/27 12:44:38;;;;;;;5.03;4.73;;;;;;;;;;4988866;28;20741;-81
2023/04/27 12:47:04;;;;;;;5.80;5.30;;;;;;;;;;4970629;28;20531;-80
2023/04/27 12:49:30;;;;;;;5.43;5.10;;;;;;;;;;4988903;28;20963;-80
2023/04/27 12:51:57;;;;;;;5.00;4.90;;;;;;;;;;4968316;28;20463;-79
2023/04/27 12:54:23;;;;;;;5.13;4.83;;;;;;;;;;4984142;28;20445;-80
2023/04/27 12:56:49;;;;;;;5.17;4.87;;;;;;;;;;4984125;28;20509;-82
2023/04/27 12:59:16;;;;;;;6.00;5.40;;;;;;;;;;4983713;28;20436;-83
2023/04/27 13:01:42;;;;;;;4.77;4.57;;;;;;;;;;4967798;28;20515;-82
2023/04/27 13:04:16;;;;;;;5.13;4.83;;;;;;;;;;4980757;28;20786;-81
2023/04/27 13:06:42;;;;;;;6.38;5.88;;;;;;;;;;4983204;28;20942;-80
2023/04/27 13:09:09;;;;;;;5.90;5.60;;;;;;;;;;4965557;28;20594;-83
2023/04/27 13:11:35;;;;;;;6.33;6.03;;;;;;;;;;4961531;28;20483;-82
2023/04/27 13:14:01;;;;;;;6.00;5.63;;;;;;;;;;4977935;28;20495;-84
2023/04/27 13:16:27;;;;;;;6.33;5.90;;;;;;;;;;4979053;28;20448;-82
2023/04/27 13:18:54;;;;;;;5.53;5.30;;;;;;;;;;4986266;28;20420;-82
2023/04/27 13:21:20;;;;;;;6.13;5.13;;;;;;;;;;4979492;28;20430;-83
2023/04/27 13:23:46;;;;;;;8.70;6.50;;;;;;;;;;4964786;28;20444;-83
2023/04/27 13:26:13;;;;;;;5.87;5.57;;;;;;;;;;4974604;28;20466;-83
2023/04/27 13:28:39;;;;;;;5.90;5.60;;;;;;;;;;4978972;28;20422;-83
2023/04/27 13:31:05;;;;;;;5.63;5.23;;;;;;;;;;4987461;28;20479;-81
2023/04/27 13:33:32;;;;;;;5.83;5.47;;;;;;;;;;4962439;28;21056;-80
2023/04/27 13:36:01;;;;;;;6.13;5.40;;;;;;;;;;4982413;28;20436;-80
2023/04/27 13:38:27;;;;;;;5.47;5.27;;;;;;;;;;4966082;28;20468;-83
2023/04/27 13:40:53;;;;;;;6.47;5.67;;;;;;;;;;4980394;28;20449;-83
2023/04/27 13:43:19;;;;;;;6.17;5.67;;;;;;;;;;4982470;28;20452;-82
2023/04/27 13:45:46;;;;;;;5.70;5.37;;;;;;;;;;4986462;28;20710;-82
2023/04/27 13:48:12;;;;;;;5.57;5.30;;;;;;;;;;4986971;28;20454;-82
2023/04/27 13:50:38;;;;;;;6.63;6.23;;;;;;;;;;4991657;28;20471;-84
2023/04/27 13:53:04;;;;;;;5.90;5.63;;;;;;;;;;4983264;28;20519;-82
2023/04/27 13:55:30;;;;;;;7.10;6.50;;;;;;;;;;4984875;28;20987;-84
2023/04/27 13:57:56;;;;;;;6.30;5.80;;;;;;;;;;4989593;28;20440;-82
2023/04/27 14:00:27;;;;;;;6.00;5.60;;;;;;;;;;4979778;28;20482;-85
2023/04/27 14:02:53;;;;;;;6.07;5.67;;;;;;;;;;4982409;28;20960;-86
2023/04/27 14:05:19;;;;;;;7.30;5.87;;;;;;;;;;4991798;28;20470;-82
2023/04/27 14:07:45;;;;;;;6.17;5.67;;;;;;;;;;4995075;28;20800;-84
2023/04/27 14:10:13;;;;;;;8.20;7.50;;;;;;;;;;4993671;28;20478;-83
2023/04/27 14:12:40;;;;;;;6.63;6.23;;;;;;;;;;4988641;28;20440;-85
2023/04/27 14:15:06;;;;;;;6.73;5.83;;;;;;;;;;4971977;28;20943;-84
2023/04/27 14:17:32;;;;;;;6.87;6.47;;;;;;;;;;4975302;28;20421;-87
2023/04/27 14:19:58;;;;;;;6.80;6.30;;;;;;;;;;4991146;28;20883;-81
2023/04/27 14:22:24;;;;;;;10.17;9.13;;;;;;;;;;4971319;28;20420;-85
2023/04/27 14:24:50;;;;;;;6.80;6.30;;;;;;;;;;4989158;28;20460;-82
2023/04/27 14:27:16;;;;;;;7.27;6.57;;;;;;;;;;5000270;28;20404;-88
2023/04/27 14:29:43;;;;;;;6.43;6.00;;;;;;;;;;5006180;28;20464;-83
2023/04/27 14:32:09;;;;;;;6.80;6.07;;;;;;;;;;4996962;28;20429;-86
2023/04/27 14:34:35;;;;;;;7.50;6.77;;;;;;;;;;4990428;28;20949;-85
2023/04/27 14:37:04;;;;;;;15.60;7.73;;;;;;;;;;4989486;28;20463;-83
2023/04/27 14:39:30;;;;;;;7.07;6.50;;;;;;;;;;4969484;28;20432;-84
2023/04/27 14:41:56;;;;;;;7.93;7.27;;;;;;;;;;4987661;28;20568;-83